createdAt,value
2019-03-31T00:01:15.602Z,23.23
2019-03-31T00:03:49.253Z,22.87
2019-03-31T00:06:22.972Z,23.10
2019-03-31T00:08:56.772Z,22.97
2019-03-31T00:11:30.583Z,21.27
2019-03-31T00:14:04.428Z,23.80
2019-03-31T00:16:39.654Z,22.50
2019-03-31T00:22:54.201Z,21.17
2019-03-31T00:25:27.870Z,23.07
2019-03-31T00:28:01.632Z,21.03
2019-03-31T00:30:36.390Z,20.17
2019-03-31T00:33:10.406Z,19.50
2019-03-31T00:39:21.216Z,19.60
2019-03-31T00:41:54.950Z,18.40
2019-03-31T00:44:28.622Z,18.47
2019-03-31T00:47:02.428Z,18.63
2019-03-31T00:49:36.256Z,18.37
2019-03-31T00:52:11.168Z,18.40
2019-03-31T00:54:44.738Z,18.83
2019-03-31T00:57:18.472Z,16.67
2019-03-31T00:59:52.219Z,17.40
2019-03-31T01:02:27.767Z,17.80
2019-03-31T01:05:01.732Z,17.50
2019-03-31T01:07:35.893Z,18.10
2019-03-31T01:10:10.132Z,18.03
2019-03-31T01:12:44.310Z,17.57
2019-03-31T01:15:21.562Z,17.47
2019-03-31T01:17:55.610Z,16.73
2019-03-31T01:20:29.290Z,16.23
2019-03-31T01:23:03.024Z,17.20
2019-03-31T01:25:36.727Z,16.63
2019-03-31T01:28:10.980Z,15.23
2019-03-31T01:30:44.874Z,16.80
2019-03-31T01:33:20.910Z,16.20
2019-03-31T01:35:54.813Z,16.23
2019-03-31T01:38:28.462Z,16.47
2019-03-31T01:41:02.296Z,16.77
2019-03-31T01:43:36.176Z,16.37
2019-03-31T01:46:11.429Z,16.87
2019-03-31T01:48:45.051Z,17.00
2019-03-31T01:51:18.723Z,17.27
2019-03-31T01:53:52.476Z,16.43
2019-03-31T01:56:26.664Z,17.47
2019-03-31T01:59:00.611Z,16.87
2019-03-31T02:01:34.508Z,16.93
2019-03-31T02:04:08.229Z,16.67
2019-03-31T02:06:41.851Z,16.33
2019-03-31T02:09:15.526Z,17.57
2019-03-31T02:11:49.131Z,16.60
2019-03-31T02:14:22.970Z,16.87
2019-03-31T02:16:56.828Z,17.07
2019-03-31T02:19:30.610Z,16.67
2019-03-31T02:22:04.430Z,18.17
2019-03-31T02:24:38.170Z,18.43
2019-03-31T02:27:11.826Z,16.63
2019-03-31T02:29:45.509Z,18.20
2019-03-31T02:32:24.283Z,16.43
2019-03-31T02:38:31.540Z,17.23
2019-03-31T02:41:06.321Z,18.27
2019-03-31T02:43:40.024Z,18.87
2019-03-31T02:46:13.801Z,18.00
2019-03-31T02:48:47.401Z,20.07
2019-03-31T02:54:58.952Z,20.33
2019-03-31T02:57:33.427Z,19.37
2019-03-31T03:00:07.839Z,19.77
2019-03-31T03:02:42.894Z,20.90
2019-03-31T03:05:20.252Z,20.33
2019-03-31T03:07:56.139Z,20.40
2019-03-31T03:10:32.917Z,19.27
2019-03-31T03:13:09.239Z,21.57
2019-03-31T03:16:04.294Z,19.97
2019-03-31T03:18:38.024Z,21.73
2019-03-31T03:21:11.697Z,22.73
2019-03-31T03:23:45.425Z,22.40
2019-03-31T03:26:19.304Z,24.73
2019-03-31T03:28:53.013Z,25.83
2019-03-31T03:31:26.717Z,27.23
2019-03-31T03:34:00.318Z,26.90
2019-03-31T03:36:34.010Z,28.83
2019-03-31T03:39:08.491Z,30.17
2019-03-31T03:41:43.068Z,32.63
2019-03-31T03:44:16.747Z,33.87
2019-03-31T03:46:50.402Z,33.90
2019-03-31T03:49:24.149Z,33.57
2019-03-31T03:51:57.858Z,33.90
2019-03-31T03:54:31.537Z,33.80
2019-03-31T03:57:05.239Z,34.60
2019-03-31T03:59:39.025Z,31.63
2019-03-31T04:02:12.966Z,30.73
2019-03-31T04:04:46.739Z,29.37
2019-03-31T04:07:20.434Z,29.13
2019-03-31T04:09:54.020Z,28.53
2019-03-31T04:12:27.763Z,30.27
2019-03-31T04:15:01.358Z,28.90
2019-03-31T04:17:35.168Z,28.27
2019-03-31T04:20:08.897Z,27.43
2019-03-31T04:22:42.887Z,26.90
2019-03-31T04:25:16.594Z,28.53
2019-03-31T04:27:50.386Z,27.67
2019-03-31T04:30:24.140Z,28.77
2019-03-31T04:32:57.889Z,27.80
2019-03-31T04:39:08.906Z,27.27
2019-03-31T04:41:42.452Z,26.10
2019-03-31T04:44:16.189Z,27.67
2019-03-31T04:46:49.995Z,28.33
2019-03-31T04:49:23.636Z,26.57
2019-03-31T04:55:43.307Z,27.17
2019-03-31T04:58:16.997Z,29.10
2019-03-31T05:00:50.709Z,27.67
2019-03-31T05:03:24.532Z,28.60
2019-03-31T05:05:58.140Z,27.53
2019-03-31T05:08:31.866Z,26.00
2019-03-31T05:11:05.657Z,25.73
2019-03-31T05:13:39.327Z,25.40
2019-03-31T05:16:13.107Z,25.00
2019-03-31T05:18:46.823Z,24.03
2019-03-31T05:21:20.449Z,24.90
2019-03-31T05:23:54.141Z,23.70
2019-03-31T05:26:27.891Z,22.80
2019-03-31T05:29:01.476Z,22.20
2019-03-31T05:31:35.307Z,21.87
2019-03-31T05:34:18.840Z,21.77
2019-03-31T05:36:44.392Z,19.73
2019-03-31T05:39:18.011Z,21.03
2019-03-31T05:41:51.772Z,18.33
2019-03-31T05:44:25.351Z,18.57
2019-03-31T05:46:59.021Z,17.50
2019-03-31T05:49:32.795Z,17.03
2019-03-31T05:52:06.489Z,15.87
2019-03-31T05:54:40.229Z,15.33
2019-03-31T05:57:13.933Z,15.83
2019-03-31T05:59:47.717Z,13.97
2019-03-31T06:02:21.639Z,16.13
2019-03-31T06:04:55.291Z,14.90
2019-03-31T06:07:29.032Z,13.90
2019-03-31T06:10:02.871Z,13.63
2019-03-31T06:12:36.623Z,13.67
2019-03-31T06:15:10.337Z,13.90
2019-03-31T06:17:43.973Z,14.17
2019-03-31T06:20:17.629Z,13.80
2019-03-31T06:22:51.404Z,14.00
2019-03-31T06:25:25.239Z,14.70
2019-03-31T06:27:59.103Z,13.80
2019-03-31T06:30:32.932Z,15.57
2019-03-31T06:33:06.751Z,14.83
2019-03-31T06:35:40.453Z,14.23
2019-03-31T06:38:14.116Z,15.00
2019-03-31T06:40:49.406Z,14.33
2019-03-31T06:43:23.267Z,13.20
2019-03-31T06:45:56.828Z,12.97
2019-03-31T06:48:30.619Z,13.17
2019-03-31T06:51:04.272Z,12.93
2019-03-31T06:53:37.887Z,11.83
2019-03-31T06:56:11.594Z,11.93
2019-03-31T06:58:45.388Z,10.47
2019-03-31T07:01:19.092Z,11.10
2019-03-31T07:03:52.759Z,10.67
2019-03-31T07:10:13.112Z,10.33
2019-03-31T07:12:47.466Z,8.27
2019-03-31T07:15:21.491Z,9.27
2019-03-31T07:17:55.896Z,8.17
2019-03-31T07:20:29.633Z,6.93
2019-03-31T07:26:44.962Z,6.43
2019-03-31T07:29:18.580Z,7.47
2019-03-31T07:31:52.370Z,7.47
2019-03-31T07:34:26.080Z,7.27
2019-03-31T07:36:59.709Z,6.60
2019-03-31T07:39:33.581Z,5.80
2019-03-31T07:42:07.664Z,5.87
2019-03-31T07:44:41.382Z,5.60
2019-03-31T07:47:15.646Z,5.63
2019-03-31T07:49:49.430Z,4.97
2019-03-31T07:52:23.107Z,6.12
2019-03-31T07:54:56.820Z,5.63
2019-03-31T07:57:31.086Z,5.03
2019-03-31T08:00:10.097Z,5.13
2019-03-31T08:02:44.271Z,4.97
2019-03-31T08:05:32.106Z,4.53
2019-03-31T08:07:53.829Z,4.10
2019-03-31T08:10:27.555Z,3.87
2019-03-31T08:13:01.274Z,3.67
2019-03-31T08:15:34.952Z,3.53
2019-03-31T08:18:08.669Z,4.23
2019-03-31T08:20:42.316Z,3.80
2019-03-31T08:23:16.032Z,4.30
2019-03-31T08:25:49.732Z,3.40
2019-03-31T08:28:25.206Z,3.77
2019-03-31T08:30:58.906Z,4.00
2019-03-31T08:33:33.581Z,3.03
2019-03-31T08:36:07.671Z,3.50
2019-03-31T08:38:41.716Z,3.27
2019-03-31T08:41:15.577Z,2.80
2019-03-31T08:43:49.541Z,3.17
2019-03-31T08:46:23.170Z,2.40
2019-03-31T08:48:56.891Z,2.40
2019-03-31T08:51:30.535Z,2.10
2019-03-31T08:54:04.460Z,1.97
2019-03-31T08:56:38.121Z,1.50
2019-03-31T08:59:11.728Z,2.13
2019-03-31T09:01:45.807Z,1.33
2019-03-31T09:04:20.474Z,1.53
2019-03-31T09:10:31.107Z,1.80
2019-03-31T09:13:05.008Z,1.90
2019-03-31T09:15:38.829Z,2.33
2019-03-31T09:18:12.884Z,1.70
2019-03-31T09:20:46.528Z,2.60
2019-03-31T09:26:56.791Z,2.07
2019-03-31T09:29:30.780Z,2.00
2019-03-31T09:32:04.491Z,1.70
2019-03-31T09:34:38.196Z,2.10
2019-03-31T09:37:11.980Z,1.70
2019-03-31T09:39:45.679Z,2.00
2019-03-31T09:42:19.338Z,2.60
2019-03-31T09:44:53.187Z,1.83
2019-03-31T09:47:26.875Z,1.80
2019-03-31T09:50:02.098Z,1.60
2019-03-31T09:52:35.856Z,2.23
2019-03-31T09:55:10.314Z,2.00
2019-03-31T09:57:44.168Z,1.70
2019-03-31T10:00:20.879Z,2.10
2019-03-31T10:02:55.161Z,2.83
2019-03-31T10:05:28.869Z,1.90
2019-03-31T10:08:02.663Z,1.83
2019-03-31T10:10:37.422Z,1.60
2019-03-31T10:13:12.759Z,1.63
2019-03-31T10:15:46.357Z,1.27
2019-03-31T10:18:20.137Z,1.30
2019-03-31T10:20:53.762Z,1.50
2019-03-31T10:23:27.515Z,2.20
2019-03-31T10:26:01.500Z,2.10
2019-03-31T10:28:35.257Z,1.87
2019-03-31T10:31:08.998Z,2.43
2019-03-31T10:33:42.986Z,1.67
2019-03-31T10:36:16.712Z,1.30
2019-03-31T10:38:51.373Z,1.50
2019-03-31T10:41:25.216Z,1.90
2019-03-31T10:43:59.487Z,1.10
2019-03-31T10:46:33.144Z,1.70
2019-03-31T10:49:06.980Z,2.00
2019-03-31T10:51:40.620Z,2.00
2019-03-31T10:54:16.461Z,2.03
2019-03-31T10:56:50.147Z,1.77
2019-03-31T10:59:24.249Z,1.97
2019-03-31T11:01:57.874Z,1.80
2019-03-31T11:04:31.496Z,2.77
2019-03-31T11:07:05.456Z,1.90
2019-03-31T11:09:39.455Z,1.80
2019-03-31T11:12:13.236Z,1.40
2019-03-31T11:14:46.946Z,1.20
2019-03-31T11:17:20.546Z,1.63
2019-03-31T11:19:54.364Z,1.70
2019-03-31T11:22:45.971Z,1.70
2019-03-31T11:25:21.262Z,1.30
2019-03-31T11:27:56.616Z,2.00
2019-03-31T11:30:30.228Z,1.50
2019-03-31T11:33:07.324Z,1.60
2019-03-31T11:35:40.343Z,2.00
2019-03-31T11:41:51.123Z,1.47
2019-03-31T11:44:27.561Z,1.93
2019-03-31T11:47:00.298Z,1.87
2019-03-31T11:49:35.277Z,1.80
2019-03-31T11:52:09.110Z,1.40
2019-03-31T11:58:32.145Z,1.97
2019-03-31T12:01:04.583Z,1.50
2019-03-31T12:03:38.257Z,1.67
2019-03-31T12:06:12.144Z,1.43
2019-03-31T12:08:45.895Z,1.47
2019-03-31T12:11:21.658Z,1.53
2019-03-31T12:13:55.813Z,2.20
2019-03-31T12:16:29.479Z,2.03
2019-03-31T12:19:04.754Z,1.70
2019-03-31T12:21:38.592Z,2.20
2019-03-31T12:24:12.607Z,1.70
2019-03-31T12:26:47.304Z,1.47
2019-03-31T12:29:20.976Z,1.60
2019-03-31T12:31:54.630Z,1.60
2019-03-31T12:34:28.420Z,1.63
2019-03-31T12:37:02.011Z,1.63
2019-03-31T12:39:35.805Z,1.90
2019-03-31T12:42:09.667Z,1.83
2019-03-31T12:44:43.310Z,1.63
2019-03-31T12:47:17.282Z,1.93
2019-03-31T12:49:51.072Z,2.63
2019-03-31T12:52:25.032Z,1.17
2019-03-31T12:54:58.715Z,2.90
2019-03-31T12:57:32.455Z,1.90
2019-03-31T13:00:07.974Z,1.93
2019-03-31T13:02:42.129Z,1.50
2019-03-31T13:05:15.696Z,2.40
2019-03-31T13:07:56.123Z,1.73
2019-03-31T13:10:25.117Z,1.40
2019-03-31T13:12:59.262Z,1.90
2019-03-31T13:15:33.468Z,1.67
2019-03-31T13:18:07.420Z,1.67
2019-03-31T13:20:41.471Z,1.40
2019-03-31T13:23:15.178Z,2.13
2019-03-31T13:25:48.840Z,1.50
2019-03-31T13:28:23.318Z,1.50
2019-03-31T13:30:58.339Z,1.50
2019-03-31T13:33:32.053Z,1.53
2019-03-31T13:36:05.758Z,1.40
2019-03-31T13:42:16.832Z,1.93
2019-03-31T13:44:50.714Z,2.27
2019-03-31T13:47:24.317Z,1.60
2019-03-31T13:49:58.016Z,1.40
2019-03-31T13:52:32.743Z,1.50
2019-03-31T13:58:44.201Z,1.20
2019-03-31T14:01:23.479Z,1.10
2019-03-31T14:03:57.196Z,1.00
2019-03-31T14:06:31.766Z,1.13
2019-03-31T14:09:08.428Z,1.10
2019-03-31T14:11:42.032Z,1.50
2019-03-31T14:14:15.688Z,3.07
2019-03-31T14:16:49.291Z,2.30
2019-03-31T14:19:23.894Z,3.57
2019-03-31T14:21:59.157Z,2.10
2019-03-31T14:24:33.550Z,1.70
2019-03-31T14:27:07.271Z,1.30
2019-03-31T14:29:42.563Z,1.47
2019-03-31T14:32:16.564Z,1.20
2019-03-31T14:34:50.367Z,1.43
2019-03-31T14:37:24.272Z,1.30
2019-03-31T14:39:58.005Z,1.30
2019-03-31T14:42:31.791Z,1.20
2019-03-31T14:45:08.399Z,1.97
2019-03-31T14:47:43.944Z,1.80
2019-03-31T14:50:20.820Z,1.93
2019-03-31T14:52:54.418Z,2.17
2019-03-31T14:55:28.397Z,1.97
2019-03-31T14:58:02.267Z,2.03
2019-03-31T15:00:37.091Z,1.73
2019-03-31T15:03:11.822Z,1.57
2019-03-31T15:05:47.167Z,1.60
2019-03-31T15:08:20.866Z,1.50
2019-03-31T15:10:54.543Z,2.40
2019-03-31T15:13:28.422Z,1.67
2019-03-31T15:16:02.204Z,1.00
2019-03-31T15:18:35.949Z,1.30
2019-03-31T15:21:09.648Z,1.50
2019-03-31T15:23:43.400Z,1.13
2019-03-31T15:26:17.104Z,0.90
2019-03-31T15:28:50.759Z,1.23
2019-03-31T15:31:24.466Z,1.10
2019-03-31T15:33:58.255Z,1.37
2019-03-31T15:36:31.824Z,1.50
2019-03-31T15:41:59.247Z,1.70
2019-03-31T15:44:32.925Z,1.80
2019-03-31T15:47:06.600Z,1.77
2019-03-31T15:49:40.428Z,2.33
2019-03-31T15:52:14.174Z,1.67
2019-03-31T15:58:25.290Z,2.03
2019-03-31T16:00:58.876Z,1.83
2019-03-31T16:03:34.284Z,1.87
2019-03-31T16:06:07.983Z,1.70
2019-03-31T16:08:41.991Z,2.00
2019-03-31T16:14:53.935Z,2.10
2019-03-31T16:17:27.645Z,1.90
2019-03-31T16:20:02.008Z,2.90
2019-03-31T16:22:35.694Z,2.30
2019-03-31T16:25:17.201Z,2.40
2019-03-31T16:27:51.584Z,2.07
2019-03-31T16:30:26.855Z,2.03
2019-03-31T16:33:00.524Z,4.00
2019-03-31T16:35:34.418Z,3.53
2019-03-31T16:38:08.317Z,2.17
2019-03-31T16:40:42.157Z,2.60
2019-03-31T16:43:15.713Z,2.30
2019-03-31T16:45:49.496Z,1.77
2019-03-31T16:48:23.223Z,2.17
2019-03-31T16:50:56.802Z,2.20
2019-03-31T16:53:30.572Z,1.83
2019-03-31T16:56:04.374Z,1.70
2019-03-31T16:58:39.147Z,2.23
2019-03-31T17:01:12.989Z,1.23
2019-03-31T17:03:48.143Z,1.20
2019-03-31T17:06:21.902Z,1.90
2019-03-31T17:08:55.516Z,1.40
2019-03-31T17:11:29.427Z,1.40
2019-03-31T17:14:03.248Z,1.50
2019-03-31T17:16:36.943Z,1.40
2019-03-31T17:19:10.594Z,1.73
2019-03-31T17:21:44.616Z,2.13
2019-03-31T17:24:18.309Z,1.37
2019-03-31T17:26:52.012Z,1.40
2019-03-31T17:29:25.650Z,1.47
2019-03-31T17:31:59.376Z,1.33
2019-03-31T17:34:33.052Z,2.23
2019-03-31T17:37:06.841Z,2.00
2019-03-31T17:39:41.522Z,1.83
2019-03-31T17:42:15.192Z,2.30
2019-03-31T17:44:48.772Z,2.00
2019-03-31T17:47:22.502Z,1.87
2019-03-31T17:49:56.116Z,1.87
2019-03-31T17:52:29.861Z,1.67
2019-03-31T17:58:51.298Z,1.93
2019-03-31T18:01:25.020Z,2.17
2019-03-31T18:03:58.650Z,2.03
2019-03-31T18:06:32.387Z,2.10
2019-03-31T18:09:09.076Z,2.50
2019-03-31T18:15:21.568Z,2.10
2019-03-31T18:17:55.051Z,1.70
2019-03-31T18:20:30.351Z,1.50
2019-03-31T18:23:04.159Z,1.70
2019-03-31T18:25:37.974Z,1.63
2019-03-31T18:28:11.726Z,2.03
2019-03-31T18:30:45.484Z,1.83
2019-03-31T18:33:19.312Z,1.77
2019-03-31T18:35:54.912Z,1.83
2019-03-31T18:38:28.688Z,1.80
2019-03-31T18:41:03.933Z,1.33
2019-03-31T18:43:50.605Z,2.40
2019-03-31T18:46:13.003Z,1.57
2019-03-31T18:48:46.729Z,2.40
2019-03-31T18:51:20.542Z,2.10
2019-03-31T18:54:12.306Z,1.97
2019-03-31T18:56:47.610Z,1.50
2019-03-31T18:59:25.378Z,1.60
2019-03-31T19:02:11.576Z,2.00
2019-03-31T19:04:47.048Z,1.60
2019-03-31T19:07:38.752Z,2.10
2019-03-31T19:13:31.032Z,1.63
2019-03-31T19:16:15.281Z,1.67
2019-03-31T19:19:06.770Z,6.03
2019-03-31T19:21:50.749Z,12.40
2019-03-31T19:24:45.829Z,16.10
2019-03-31T19:27:19.484Z,17.47
2019-03-31T19:29:54.811Z,12.70
2019-03-31T19:32:30.302Z,10.60
2019-03-31T19:35:09.285Z,11.03
2019-03-31T19:37:59.860Z,10.43
2019-03-31T19:44:12.855Z,11.97
2019-03-31T19:46:48.202Z,11.47
2019-03-31T19:49:32.232Z,9.67
2019-03-31T19:52:26.186Z,7.33
2019-03-31T19:55:04.294Z,5.73
2019-03-31T19:58:50.950Z,6.80
2019-03-31T20:01:32.841Z,7.23
2019-03-31T20:04:18.719Z,6.70
2019-03-31T20:07:09.214Z,5.70
2019-03-31T20:10:02.590Z,5.50
2019-03-31T20:16:20.578Z,6.63
2019-03-31T20:19:12.325Z,6.33
2019-03-31T20:21:50.682Z,6.73
2019-03-31T20:24:29.128Z,7.20
2019-03-31T20:27:04.535Z,6.80
2019-03-31T20:29:51.695Z,7.47
2019-03-31T20:32:29.557Z,7.83
2019-03-31T20:35:10.858Z,7.73
2019-03-31T20:37:48.878Z,7.90
2019-03-31T20:40:29.733Z,6.73
2019-03-31T20:43:17.028Z,6.80
2019-03-31T20:45:50.789Z,7.23
2019-03-31T20:48:24.573Z,9.37
2019-03-31T20:50:58.290Z,10.53
2019-03-31T20:53:32.066Z,15.53
2019-03-31T20:59:43.046Z,16.07
2019-03-31T21:02:17.694Z,16.50
2019-03-31T21:04:51.404Z,17.17
2019-03-31T21:07:25.053Z,17.00
2019-03-31T21:09:58.802Z,19.23
2019-03-31T21:16:11.749Z,16.33
2019-03-31T21:18:45.465Z,17.17
2019-03-31T21:21:19.251Z,17.13
2019-03-31T21:23:53.308Z,16.47
2019-03-31T21:26:26.995Z,18.20
2019-03-31T21:29:00.667Z,16.67
2019-03-31T21:31:34.315Z,18.23
2019-03-31T21:34:10.938Z,20.07
2019-03-31T21:36:44.932Z,18.93
2019-03-31T21:39:20.261Z,19.33
2019-03-31T21:41:54.025Z,22.07
2019-03-31T21:44:27.770Z,19.30
2019-03-31T21:47:01.512Z,18.93
2019-03-31T21:49:35.217Z,18.00
2019-03-31T21:52:08.889Z,17.00
2019-03-31T21:54:42.647Z,16.40
2019-03-31T21:57:16.250Z,16.17
2019-03-31T21:59:50.030Z,14.47
2019-03-31T22:02:23.939Z,13.13
2019-03-31T22:04:57.881Z,11.77
2019-03-31T22:07:31.659Z,10.80
2019-03-31T22:10:08.889Z,12.70
2019-03-31T22:12:42.585Z,16.33
2019-03-31T22:15:16.431Z,18.33
2019-03-31T22:17:50.133Z,18.40
2019-03-31T22:20:24.069Z,18.23
2019-03-31T22:22:59.203Z,16.80
2019-03-31T22:25:33.211Z,16.90
2019-03-31T22:28:06.949Z,18.23
2019-03-31T22:30:40.845Z,17.80
2019-03-31T22:33:14.625Z,16.77
2019-03-31T22:36:06.701Z,16.67
2019-03-31T22:38:43.581Z,18.27
2019-03-31T22:41:17.438Z,16.20
2019-03-31T22:43:51.144Z,17.63
2019-03-31T22:46:24.839Z,18.03
2019-03-31T22:48:58.642Z,17.33
2019-03-31T22:51:33.459Z,18.43
2019-03-31T22:54:07.073Z,17.97
2019-03-31T23:00:27.801Z,14.83
2019-03-31T23:03:01.539Z,16.77
2019-03-31T23:05:35.185Z,16.27
2019-03-31T23:08:08.808Z,16.17
2019-03-31T23:10:42.539Z,15.97
2019-03-31T23:16:53.744Z,15.70
2019-03-31T23:19:27.513Z,14.53
2019-03-31T23:22:01.249Z,15.77
2019-03-31T23:24:34.996Z,15.23
2019-03-31T23:27:08.791Z,15.63
2019-03-31T23:29:42.528Z,15.47
2019-03-31T23:32:16.209Z,15.03
2019-03-31T23:34:49.873Z,14.33
2019-03-31T23:37:23.757Z,15.63
2019-03-31T23:39:57.483Z,14.60
2019-03-31T23:42:31.162Z,13.87
2019-03-31T23:45:06.027Z,14.20
2019-03-31T23:47:39.757Z,13.27
2019-03-31T23:50:13.771Z,14.63
2019-03-31T23:52:47.581Z,14.47
2019-03-31T23:55:21.213Z,13.23
2019-03-31T23:57:54.885Z,14.10
